createdAt,value
2023-04-22T00:00:27.847Z,6605.00
2023-04-22T00:01:27.806Z,6710.00
2023-04-22T00:02:27.937Z,6820.00
2023-04-22T00:03:28.019Z,6850.00
2023-04-22T00:04:28.004Z,6819.00
2023-04-22T00:05:28.061Z,6745.00
2023-04-22T00:06:28.073Z,6853.00
2023-04-22T00:07:28.119Z,7040.00
2023-04-22T00:08:28.136Z,7183.00
2023-04-22T00:09:28.167Z,7238.00
2023-04-22T00:10:28.148Z,7334.00
2023-04-22T00:11:28.191Z,7515.00
2023-04-22T00:12:28.160Z,7693.00
2023-04-22T00:13:28.188Z,7748.00
2023-04-22T00:14:28.202Z,7831.00
2023-04-22T00:15:28.201Z,7659.00
2023-04-22T00:16:28.294Z,7344.00
2023-04-22T00:17:28.240Z,7307.00
2023-04-22T00:18:28.234Z,7262.00
2023-04-22T00:19:28.271Z,7260.00
2023-04-22T00:20:28.292Z,7312.00
2023-04-22T00:21:28.901Z,7481.00
2023-04-22T00:22:28.445Z,7625.00
2023-04-22T00:23:28.426Z,7658.00
2023-04-22T00:24:28.747Z,7636.00
2023-04-22T00:25:28.502Z,7548.00
2023-04-22T00:26:28.533Z,7574.00
2023-04-22T00:27:28.570Z,7576.00
2023-04-22T00:28:28.534Z,7507.00
2023-04-22T00:29:28.622Z,7465.00
2023-04-22T00:30:28.660Z,7314.00
2023-04-22T00:31:28.800Z,6860.00
2023-04-22T00:32:28.778Z,6484.00
2023-04-22T00:33:28.711Z,6231.00
2023-04-22T00:34:28.701Z,6279.00
2023-04-22T00:35:28.710Z,6571.00
2023-04-22T00:36:28.756Z,6052.00
2023-04-22T00:37:28.732Z,5361.00
2023-04-22T00:38:28.737Z,5116.00
2023-04-22T00:39:28.750Z,5209.00
2023-04-22T00:40:28.767Z,5171.00
2023-04-22T00:41:28.869Z,5017.00
2023-04-22T00:42:28.884Z,5021.00
2023-04-22T00:43:28.879Z,5236.00
2023-04-22T00:44:28.923Z,5343.00
2023-04-22T00:45:28.900Z,5379.00
2023-04-22T00:46:29.021Z,5440.00
2023-04-22T00:47:28.978Z,5700.00
2023-04-22T00:48:29.091Z,6066.00
2023-04-22T00:49:28.979Z,6399.00
2023-04-22T00:50:29.000Z,6586.00
2023-04-22T00:51:29.048Z,6800.00
2023-04-22T00:52:29.124Z,7062.00
2023-04-22T00:53:29.063Z,7271.00
2023-04-22T00:54:29.068Z,7403.00
2023-04-22T00:55:29.076Z,7489.00
2023-04-22T00:56:29.159Z,7521.00
2023-04-22T00:57:29.148Z,7561.00
2023-04-22T00:58:29.130Z,7544.00
2023-04-22T00:59:29.101Z,7546.00
2023-04-22T01:00:29.305Z,7636.00
2023-04-22T01:01:29.366Z,7745.00
2023-04-22T01:02:29.403Z,7805.00
2023-04-22T01:03:29.361Z,7401.00
2023-04-22T01:04:29.321Z,6906.00
2023-04-22T01:05:29.328Z,6872.00
2023-04-22T01:06:29.402Z,6959.00
2023-04-22T01:07:29.419Z,7242.00
2023-04-22T01:08:29.435Z,7427.00
2023-04-22T01:09:29.482Z,7537.00
2023-04-22T01:10:29.553Z,7617.00
2023-04-22T01:11:29.574Z,7801.00
2023-04-22T01:12:29.597Z,7920.00
2023-04-22T01:13:29.653Z,7922.00
2023-04-22T01:14:29.695Z,7949.00
2023-04-22T01:15:29.726Z,8019.00
2023-04-22T01:16:29.819Z,8064.00
2023-04-22T01:17:29.825Z,8174.00
2023-04-22T01:18:29.807Z,8190.00
2023-04-22T01:19:29.757Z,8099.00
2023-04-22T01:20:29.858Z,7885.00
2023-04-22T01:21:29.846Z,7616.00
2023-04-22T01:22:29.847Z,7401.00
2023-04-22T01:23:29.865Z,7275.00
2023-04-22T01:24:29.881Z,6929.00
2023-04-22T01:25:29.958Z,6833.00
2023-04-22T01:26:30.082Z,6963.00
2023-04-22T01:27:30.032Z,7165.00
2023-04-22T01:28:30.135Z,7280.00
2023-04-22T01:29:30.132Z,7151.00
2023-04-22T01:30:30.176Z,7228.00
2023-04-22T01:31:30.272Z,7364.00
2023-04-22T01:32:30.323Z,7693.00
2023-04-22T01:33:30.200Z,7827.00
2023-04-22T01:34:31.532Z,7852.00
2023-04-22T01:35:30.320Z,7864.00
2023-04-22T01:36:30.330Z,7907.00
2023-04-22T01:37:30.353Z,7972.00
2023-04-22T01:38:30.364Z,8050.00
2023-04-22T01:39:30.388Z,8128.00
2023-04-22T01:40:30.454Z,8228.00
2023-04-22T01:41:30.486Z,8357.00
2023-04-22T01:42:30.512Z,8398.00
2023-04-22T01:43:30.593Z,8533.00
2023-04-22T01:44:30.654Z,8733.00
2023-04-22T01:45:30.725Z,8815.00
2023-04-22T01:46:30.953Z,8806.00
2023-04-22T01:47:30.826Z,8793.00
2023-04-22T01:48:30.804Z,8695.00
2023-04-22T01:49:30.806Z,8596.00
2023-04-22T01:50:30.851Z,8625.00
2023-04-22T01:51:30.869Z,8693.00
2023-04-22T01:52:30.865Z,8689.00
2023-04-22T01:53:30.932Z,8733.00
2023-04-22T01:54:30.992Z,8739.00
2023-04-22T01:55:31.003Z,8753.00
2023-04-22T01:56:31.024Z,8770.00
2023-04-22T01:57:31.060Z,8789.00
2023-04-22T01:58:31.041Z,8736.00
2023-04-22T01:59:31.037Z,8723.00
2023-04-22T02:00:31.078Z,8711.00
2023-04-22T02:01:31.211Z,8701.00
2023-04-22T02:02:31.312Z,8751.00
2023-04-22T02:03:31.427Z,8839.00
2023-04-22T02:04:31.304Z,8894.00
2023-04-22T02:05:31.321Z,8918.00
2023-04-22T02:06:31.333Z,8957.00
2023-04-22T02:07:31.325Z,8911.00
2023-04-22T02:08:31.410Z,8864.00
2023-04-22T02:09:31.420Z,8886.00
2023-04-22T02:10:31.483Z,8881.00
2023-04-22T02:11:31.554Z,8863.00
2023-04-22T02:12:31.531Z,8882.00
2023-04-22T02:13:31.541Z,8926.00
2023-04-22T02:14:31.537Z,8964.00
2023-04-22T02:15:31.573Z,8941.00
2023-04-22T02:16:31.724Z,8926.00
2023-04-22T02:17:31.560Z,8898.00
2023-04-22T02:18:31.579Z,8924.00
2023-04-22T02:19:31.591Z,8895.00
2023-04-22T02:20:31.538Z,8900.00
2023-04-22T02:21:31.530Z,8908.00
2023-04-22T02:22:31.523Z,8910.00
2023-04-22T02:23:31.573Z,8910.00
2023-04-22T02:24:31.565Z,8972.00
2023-04-22T02:25:31.577Z,8935.00
2023-04-22T02:26:31.583Z,8929.00
2023-04-22T02:27:31.557Z,8986.00
2023-04-22T02:28:31.579Z,9013.00
2023-04-22T02:30:59.155Z,500.00
2023-04-22T02:31:51.597Z,500.00
2023-04-22T02:32:51.503Z,500.00
2023-04-22T02:33:51.501Z,500.00
2023-04-22T02:34:51.445Z,500.00
2023-04-22T02:35:51.450Z,500.00
2023-04-22T02:36:51.406Z,501.00
2023-04-22T02:37:51.470Z,500.00
2023-04-22T02:38:51.464Z,503.00
2023-04-22T02:39:51.774Z,499.00
2023-04-22T02:40:51.433Z,506.00
2023-04-22T02:41:51.402Z,503.00
2023-04-22T02:42:51.388Z,512.00
2023-04-22T02:43:51.383Z,507.00
2023-04-22T02:44:51.383Z,507.00
2023-04-22T02:45:51.696Z,528.00
2023-04-22T02:46:51.414Z,539.00
2023-04-22T02:47:51.840Z,543.00
2023-04-22T02:48:51.422Z,559.00
2023-04-22T02:49:51.762Z,581.00
2023-04-22T02:50:51.495Z,593.00
2023-04-22T02:51:51.471Z,609.00
2023-04-22T02:52:51.535Z,655.00
2023-04-22T02:53:51.532Z,757.00
2023-04-22T02:54:51.585Z,739.00
2023-04-22T02:55:51.639Z,592.00
2023-04-22T02:56:51.677Z,505.00
2023-04-22T02:57:51.652Z,501.00
2023-04-22T02:58:51.684Z,510.00
2023-04-22T02:59:51.709Z,503.00
2023-04-22T03:00:51.795Z,521.00
2023-04-22T03:01:51.851Z,544.00
2023-04-22T03:02:52.052Z,556.00
2023-04-22T03:03:52.066Z,564.00
2023-04-22T03:04:51.908Z,598.00
2023-04-22T03:05:51.969Z,569.00
2023-04-22T03:06:52.090Z,568.00
2023-04-22T03:07:52.357Z,615.00
2023-04-22T03:08:51.992Z,747.00
2023-04-22T03:09:52.000Z,966.00
2023-04-22T03:10:52.024Z,1130.00
2023-04-22T03:11:52.037Z,1309.00
2023-04-22T03:12:52.036Z,1384.00
2023-04-22T03:13:52.034Z,1356.00
2023-04-22T03:14:52.049Z,1304.00
2023-04-22T03:15:52.382Z,1240.00
2023-04-22T03:16:52.154Z,1371.00
2023-04-22T03:17:52.146Z,1345.00
2023-04-22T03:18:52.173Z,1289.00
2023-04-22T03:19:59.814Z,843.00
2023-04-22T03:20:52.278Z,666.00
2023-04-22T03:21:52.191Z,644.00
2023-04-22T03:22:52.217Z,640.00
2023-04-22T03:23:52.156Z,649.00
2023-04-22T03:24:52.155Z,651.00
2023-04-22T03:25:52.159Z,674.00
2023-04-22T03:26:52.213Z,776.00
2023-04-22T03:27:52.170Z,899.00
2023-04-22T03:28:52.149Z,958.00
2023-04-22T03:29:52.143Z,984.00
2023-04-22T03:30:52.156Z,970.00
2023-04-22T03:31:52.252Z,996.00
2023-04-22T03:32:52.189Z,865.00
2023-04-22T03:33:52.145Z,793.00
2023-04-22T03:34:52.127Z,836.00
2023-04-22T03:35:52.131Z,806.00
2023-04-22T03:36:52.484Z,861.00
2023-04-22T03:37:53.130Z,1207.00
2023-04-22T03:38:52.472Z,1120.00
2023-04-22T03:39:52.441Z,948.00
2023-04-22T03:40:52.066Z,850.00
2023-04-22T03:41:52.074Z,750.00
2023-04-22T03:42:52.083Z,681.00
2023-04-22T03:43:52.116Z,596.00
2023-04-22T03:44:52.129Z,523.00
2023-04-22T03:45:52.265Z,507.00
2023-04-22T03:46:52.317Z,554.00
2023-04-22T03:47:52.513Z,557.00
2023-04-22T03:48:52.328Z,615.00
2023-04-22T03:49:52.442Z,637.00
2023-04-22T03:50:52.465Z,728.00
2023-04-22T03:51:52.497Z,839.00
2023-04-22T03:52:52.473Z,924.00
2023-04-22T03:53:52.506Z,971.00
2023-04-22T03:54:52.511Z,939.00
2023-04-22T03:55:52.603Z,933.00
2023-04-22T03:56:52.589Z,959.00
2023-04-22T03:57:53.051Z,964.00
2023-04-22T03:58:52.650Z,978.00
2023-04-22T03:59:52.726Z,1047.00
2023-04-22T04:00:52.767Z,1107.00
2023-04-22T04:01:52.900Z,1110.00
2023-04-22T04:02:53.021Z,1120.00
2023-04-22T04:03:53.186Z,1203.00
2023-04-22T04:04:53.343Z,1317.00
2023-04-22T04:05:53.231Z,1387.00
2023-04-22T04:06:53.163Z,1405.00
2023-04-22T04:07:53.180Z,1643.00
2023-04-22T04:08:53.507Z,1647.00
2023-04-22T04:09:53.247Z,1532.00
2023-04-22T04:10:53.327Z,1379.00
2023-04-22T04:11:53.346Z,1283.00
2023-04-22T04:12:53.361Z,1197.00
2023-04-22T04:13:53.503Z,1132.00
2023-04-22T04:14:53.745Z,1088.00
2023-04-22T04:15:53.799Z,1050.00
2023-04-22T04:16:53.565Z,1017.00
2023-04-22T04:17:53.658Z,1012.00
2023-04-22T04:18:53.654Z,921.00
2023-04-22T04:19:53.693Z,901.00
2023-04-22T04:20:54.110Z,754.00
2023-04-22T04:21:53.880Z,655.00
2023-04-22T04:22:53.793Z,691.00
2023-04-22T04:23:53.903Z,802.00
2023-04-22T04:24:54.233Z,788.00
2023-04-22T04:25:53.975Z,759.00
2023-04-22T04:26:54.268Z,874.00
2023-04-22T04:27:54.433Z,779.00
2023-04-22T04:28:54.102Z,642.00
2023-04-22T04:29:54.440Z,630.00
2023-04-22T04:30:54.135Z,665.00
2023-04-22T04:31:54.407Z,934.00
2023-04-22T04:32:54.304Z,994.00
2023-04-22T04:33:54.110Z,1096.00
2023-04-22T04:34:54.445Z,1268.00
2023-04-22T04:35:54.706Z,1228.00
2023-04-22T04:36:54.160Z,1174.00
2023-04-22T04:37:54.261Z,1207.00
2023-04-22T04:38:55.784Z,1145.00
2023-04-22T04:39:54.626Z,1049.00
2023-04-22T04:40:54.230Z,1066.00
2023-04-22T04:41:55.243Z,1087.00
2023-04-22T04:42:54.439Z,1107.00
2023-04-22T04:43:54.405Z,1092.00
2023-04-22T04:44:54.470Z,1171.00
2023-04-22T04:45:54.491Z,1168.00
2023-04-22T04:46:54.700Z,1200.00
2023-04-22T04:47:55.253Z,1293.00
2023-04-22T04:48:54.908Z,1376.00
2023-04-22T04:49:54.599Z,1474.00
2023-04-22T04:50:54.929Z,1559.00
2023-04-22T04:51:54.688Z,1643.00
2023-04-22T04:52:54.763Z,1678.00
2023-04-22T04:53:54.638Z,1747.00
2023-04-22T04:54:55.006Z,1806.00
2023-04-22T04:55:55.096Z,1884.00
2023-04-22T04:56:54.672Z,1987.00
2023-04-22T04:57:54.777Z,2098.00
2023-04-22T04:58:54.784Z,2202.00
2023-04-22T04:59:54.772Z,2257.00
2023-04-22T05:00:54.722Z,2290.00
2023-04-22T05:01:54.933Z,2216.00
2023-04-22T05:02:54.808Z,2108.00
2023-04-22T05:03:54.995Z,1994.00
2023-04-22T05:04:55.414Z,1840.00
2023-04-22T05:05:54.763Z,1687.00
2023-04-22T05:06:54.765Z,1664.00
2023-04-22T05:07:54.780Z,1656.00
2023-04-22T05:08:54.820Z,1608.00
2023-04-22T05:09:55.164Z,1618.00
2023-04-22T05:10:54.874Z,1626.00
2023-04-22T05:11:54.902Z,1492.00
2023-04-22T05:12:55.221Z,1399.00
2023-04-22T05:13:55.863Z,1314.00
2023-04-22T05:14:55.000Z,1444.00
2023-04-22T05:15:55.025Z,1301.00
2023-04-22T05:16:55.494Z,1114.00
2023-04-22T05:17:55.187Z,1113.00
2023-04-22T05:18:55.155Z,1264.00
2023-04-22T05:19:55.200Z,1385.00
2023-04-22T05:20:55.692Z,1360.00
2023-04-22T05:21:55.379Z,1393.00
2023-04-22T05:22:55.476Z,1699.00
2023-04-22T05:23:55.371Z,1695.00
2023-04-22T05:24:55.542Z,1622.00
2023-04-22T05:25:55.501Z,1535.00
2023-04-22T05:26:55.553Z,1456.00
2023-04-22T05:27:55.570Z,1479.00
2023-04-22T05:28:55.693Z,1511.00
2023-04-22T05:29:55.670Z,1316.00
2023-04-22T05:30:55.749Z,1263.00
2023-04-22T05:31:56.204Z,1181.00
2023-04-22T05:32:55.944Z,988.00
2023-04-22T05:33:55.979Z,755.00
2023-04-22T05:34:56.277Z,609.00
2023-04-22T05:35:56.736Z,628.00
2023-04-22T05:36:56.741Z,660.00
2023-04-22T05:37:56.105Z,709.00
2023-04-22T05:38:56.381Z,641.00
2023-04-22T05:39:56.465Z,632.00
2023-04-22T05:40:56.036Z,484.00
2023-04-22T05:41:56.194Z,400.00
2023-04-22T05:42:56.792Z,400.00
2023-04-22T05:43:56.231Z,400.00
2023-04-22T05:44:56.450Z,400.00
2023-04-22T05:45:56.319Z,400.00
2023-04-22T05:46:56.536Z,400.00
2023-04-22T05:47:56.954Z,400.00
2023-04-22T05:48:57.248Z,400.00
2023-04-22T05:49:56.323Z,400.00
2023-04-22T05:50:56.646Z,400.00
2023-04-22T05:51:56.521Z,400.00
2023-04-22T05:52:56.443Z,400.00
2023-04-22T05:53:56.441Z,400.00
2023-04-22T05:54:56.518Z,400.00
2023-04-22T05:55:56.571Z,400.00
2023-04-22T05:56:56.976Z,400.00
2023-04-22T05:57:56.571Z,400.00
2023-04-22T05:58:56.956Z,400.00
2023-04-22T05:59:56.633Z,400.00
2023-04-22T06:00:56.720Z,400.00
2023-04-22T06:01:57.044Z,400.00
2023-04-22T06:02:56.984Z,400.00
2023-04-22T06:03:57.398Z,400.00
2023-04-22T06:04:57.316Z,520.00
2023-04-22T06:05:56.906Z,631.00
2023-04-22T06:06:56.806Z,766.00
2023-04-22T06:07:56.788Z,985.00
2023-04-22T06:08:56.855Z,1618.00
2023-04-22T06:10:04.174Z,1931.00
2023-04-22T06:10:58.770Z,1797.00
2023-04-22T06:11:57.185Z,1555.00
2023-04-22T06:12:56.831Z,1434.00
2023-04-22T06:13:57.160Z,1448.00
2023-04-22T06:14:57.158Z,1368.00
2023-04-22T06:15:56.927Z,1324.00
2023-04-22T06:16:56.865Z,1345.00
2023-04-22T06:17:57.837Z,1699.00
2023-04-22T06:18:58.653Z,1860.00
2023-04-22T06:19:57.203Z,2073.00
2023-04-22T06:20:56.792Z,2379.00
2023-04-22T06:21:56.797Z,2643.00
2023-04-22T06:22:57.749Z,3134.00
2023-04-22T06:23:56.801Z,3330.00
2023-04-22T06:24:56.751Z,3469.00
2023-04-22T06:25:56.884Z,3396.00
2023-04-22T06:26:56.763Z,3382.00
2023-04-22T06:27:56.778Z,3351.00
2023-04-22T06:28:56.872Z,3366.00
2023-04-22T06:29:57.202Z,3120.00
2023-04-22T06:30:56.972Z,3085.00
2023-04-22T06:31:57.132Z,2891.00
2023-04-22T06:32:57.441Z,2716.00
2023-04-22T06:33:57.745Z,2536.00
2023-04-22T06:34:57.556Z,2399.00
2023-04-22T06:35:57.836Z,2311.00
2023-04-22T06:36:58.252Z,2328.00
2023-04-22T06:37:58.259Z,2391.00
2023-04-22T06:38:57.320Z,2344.00
2023-04-22T06:39:57.368Z,2186.00
2023-04-22T06:40:58.248Z,1969.00
2023-04-22T06:41:57.492Z,1631.00
2023-04-22T06:42:57.385Z,1370.00
2023-04-22T06:43:57.854Z,1097.00
2023-04-22T06:44:57.878Z,1117.00
2023-04-22T06:45:57.492Z,882.00
2023-04-22T06:46:58.177Z,699.00
2023-04-22T06:47:57.595Z,594.00
2023-04-22T06:48:58.640Z,596.00
2023-04-22T06:49:57.507Z,622.00
2023-04-22T06:50:57.890Z,787.00
2023-04-22T06:51:58.238Z,1105.00
2023-04-22T06:52:57.574Z,1362.00
2023-04-22T06:53:58.005Z,1501.00
2023-04-22T06:54:57.631Z,1619.00
2023-04-22T06:55:57.829Z,1706.00
2023-04-22T06:56:57.894Z,1788.00
2023-04-22T06:57:57.794Z,1994.00
2023-04-22T06:58:58.069Z,2048.00
2023-04-22T06:59:58.288Z,1894.00
2023-04-22T07:01:00.351Z,1675.00
2023-04-22T07:01:58.040Z,1479.00
2023-04-22T07:02:58.833Z,1446.00
2023-04-22T07:03:58.132Z,1246.00
2023-04-22T07:04:58.079Z,1245.00
2023-04-22T07:05:58.076Z,1301.00
2023-04-22T07:06:58.455Z,1431.00
2023-04-22T07:07:58.151Z,1605.00
2023-04-22T07:08:58.222Z,1622.00
2023-04-22T07:09:58.372Z,1607.00
2023-04-22T07:10:58.356Z,1592.00
2023-04-22T07:11:58.325Z,1360.00
2023-04-22T07:12:58.703Z,1174.00
2023-04-22T07:13:58.360Z,1081.00
2023-04-22T07:14:58.362Z,941.00
2023-04-22T07:15:58.440Z,694.00
2023-04-22T07:16:58.544Z,593.00
2023-04-22T07:17:58.591Z,555.00
2023-04-22T07:18:58.987Z,528.00
2023-04-22T07:19:58.648Z,499.00
2023-04-22T07:20:58.744Z,517.00
2023-04-22T07:21:58.776Z,543.00
2023-04-22T07:22:59.045Z,568.00
2023-04-22T07:23:59.218Z,564.00
2023-04-22T07:24:58.893Z,576.00
2023-04-22T07:25:59.312Z,629.00
2023-04-22T07:26:59.757Z,532.00
2023-04-22T07:27:59.367Z,608.00
2023-04-22T07:28:59.166Z,547.00
2023-04-22T07:29:59.115Z,486.00
2023-04-22T07:30:59.112Z,400.00
2023-04-22T07:31:59.689Z,437.00
2023-04-22T07:32:59.222Z,522.00
2023-04-22T07:33:59.443Z,622.00
2023-04-22T07:34:59.970Z,499.00
2023-04-22T07:35:59.268Z,565.00
2023-04-22T07:36:59.271Z,492.00
2023-04-22T07:37:59.225Z,400.00
2023-04-22T07:38:59.656Z,400.00
2023-04-22T07:39:59.267Z,400.00
2023-04-22T07:40:59.313Z,522.00
2023-04-22T07:41:59.411Z,609.00
2023-04-22T07:42:59.373Z,441.00
2023-04-22T07:43:59.419Z,400.00
2023-04-22T07:44:59.377Z,406.00
2023-04-22T07:45:59.704Z,473.00
2023-04-22T07:46:59.771Z,516.00
2023-04-22T07:47:59.498Z,501.00
2023-04-22T07:48:59.425Z,534.00
2023-04-22T07:49:59.432Z,546.00
2023-04-22T07:50:59.436Z,656.00
2023-04-22T07:51:59.515Z,622.00
2023-04-22T07:52:59.443Z,615.00
2023-04-22T07:53:59.496Z,643.00
2023-04-22T07:54:59.685Z,791.00
2023-04-22T07:56:02.034Z,1015.00
2023-04-22T07:56:59.679Z,1307.00
2023-04-22T07:57:59.530Z,1600.00
2023-04-22T07:59:00.269Z,1213.00
2023-04-22T08:00:00.046Z,861.00
2023-04-22T08:00:59.603Z,818.00
2023-04-22T08:01:59.564Z,793.00
2023-04-22T08:02:59.592Z,629.00
2023-04-22T08:03:59.745Z,809.00
2023-04-22T08:05:00.314Z,832.00
2023-04-22T08:05:59.562Z,726.00
2023-04-22T08:06:59.735Z,937.00
2023-04-22T08:07:59.537Z,721.00
2023-04-22T08:09:00.266Z,639.00
2023-04-22T08:10:00.204Z,578.00
2023-04-22T08:10:59.582Z,535.00
2023-04-22T08:11:59.659Z,486.00
2023-04-22T08:13:00.032Z,488.00
2023-04-22T08:13:59.492Z,507.00
2023-04-22T08:14:59.501Z,545.00
2023-04-22T08:16:10.201Z,552.00
2023-04-22T08:16:59.488Z,544.00
2023-04-22T08:17:59.494Z,566.00
2023-04-22T08:18:59.490Z,595.00
2023-04-22T08:19:59.428Z,604.00
2023-04-22T08:20:59.724Z,400.00
2023-04-22T08:21:59.480Z,400.00
2023-04-22T08:22:59.393Z,400.00
2023-04-22T08:23:59.847Z,400.00
2023-04-22T08:24:59.410Z,400.00
2023-04-22T08:25:59.404Z,400.00
2023-04-22T08:27:00.143Z,400.00
2023-04-22T08:27:59.435Z,400.00
2023-04-22T08:28:59.418Z,400.00
2023-04-22T08:29:59.454Z,400.00
2023-04-22T08:30:59.561Z,400.00
2023-04-22T08:31:59.545Z,400.00
2023-04-22T08:32:59.556Z,400.00
2023-04-22T08:33:59.613Z,400.00
2023-04-22T08:35:04.689Z,400.00
2023-04-22T08:36:00.944Z,400.00
2023-04-22T08:36:59.630Z,410.00
2023-04-22T08:37:59.577Z,425.00
2023-04-22T08:38:59.601Z,467.00
2023-04-22T08:39:59.639Z,400.00
2023-04-22T08:40:59.615Z,400.00
2023-04-22T08:41:59.629Z,400.00
2023-04-22T08:42:59.576Z,400.00
2023-04-22T08:44:00.158Z,400.00
2023-04-22T08:44:59.536Z,400.00
2023-04-22T08:45:59.645Z,400.00
2023-04-22T08:47:02.621Z,481.00
2023-04-22T08:47:59.649Z,545.00
2023-04-22T08:48:59.607Z,505.00
2023-04-22T08:49:59.563Z,400.00
2023-04-22T08:50:59.575Z,400.00
2023-04-22T08:51:59.567Z,403.00
2023-04-22T08:52:59.645Z,426.00
2023-04-22T08:54:00.309Z,459.00
2023-04-22T08:54:59.580Z,476.00
2023-04-22T08:55:59.548Z,556.00
2023-04-22T08:56:59.526Z,449.00
2023-04-22T08:57:59.570Z,577.00
2023-04-22T08:58:59.911Z,471.00
2023-04-22T08:59:59.551Z,416.00
2023-04-22T09:01:03.175Z,533.00
2023-04-22T09:03:19.333Z,500.00
2023-04-22T09:04:19.372Z,500.00
2023-04-22T09:05:19.246Z,500.00
2023-04-22T09:06:19.289Z,500.00
2023-04-22T09:07:19.303Z,500.00
2023-04-22T09:08:19.187Z,556.00
2023-04-22T09:09:19.192Z,941.00
2023-04-22T09:10:19.198Z,830.00
2023-04-22T09:11:19.199Z,934.00
2023-04-22T09:12:19.358Z,632.00
2023-04-22T09:13:19.227Z,466.00
2023-04-22T09:14:19.165Z,565.00
2023-04-22T09:15:19.172Z,625.00
2023-04-22T09:16:19.164Z,623.00
2023-04-22T09:17:19.195Z,623.00
2023-04-22T09:18:19.161Z,606.00
2023-04-22T09:19:19.182Z,552.00
2023-04-22T09:20:19.267Z,502.00
2023-04-22T09:21:19.114Z,523.00
2023-04-22T09:22:19.168Z,531.00
2023-04-22T09:23:19.089Z,507.00
2023-04-22T09:24:19.113Z,478.00
2023-04-22T09:25:19.130Z,528.00
2023-04-22T09:26:19.113Z,474.00
2023-04-22T09:27:19.114Z,760.00
2023-04-22T09:28:19.114Z,613.00
2023-04-22T09:29:19.130Z,537.00
2023-04-22T09:30:19.197Z,507.00
2023-04-22T09:31:19.089Z,500.00
2023-04-22T09:32:19.066Z,490.00
2023-04-22T09:33:19.064Z,516.00
2023-04-22T09:34:19.061Z,522.00
2023-04-22T09:35:19.055Z,487.00
2023-04-22T09:36:19.053Z,490.00
2023-04-22T09:37:19.033Z,532.00
2023-04-22T09:38:18.981Z,507.00
2023-04-22T09:39:19.044Z,501.00
2023-04-22T09:40:19.019Z,505.00
2023-04-22T09:41:19.008Z,543.00
2023-04-22T09:42:19.125Z,534.00
2023-04-22T09:43:19.130Z,604.00
2023-04-22T09:44:19.157Z,516.00
2023-04-22T09:45:19.154Z,499.00
2023-04-22T09:46:19.229Z,568.00
2023-04-22T09:47:19.235Z,638.00
2023-04-22T09:48:19.270Z,1233.00
2023-04-22T09:49:19.261Z,1085.00
2023-04-22T09:50:19.261Z,930.00
2023-04-22T09:51:19.354Z,1029.00
2023-04-22T09:52:19.432Z,1176.00
2023-04-22T09:53:19.396Z,1136.00
2023-04-22T09:54:19.490Z,900.00
2023-04-22T09:55:19.558Z,713.00
2023-04-22T09:56:19.607Z,823.00
2023-04-22T09:57:19.634Z,879.00
2023-04-22T09:58:20.156Z,890.00
2023-04-22T09:59:19.739Z,817.00
2023-04-22T10:00:19.817Z,1042.00
2023-04-22T10:01:19.901Z,973.00
2023-04-22T10:02:19.935Z,1036.00
2023-04-22T10:03:19.894Z,841.00
2023-04-22T10:04:19.903Z,605.00
2023-04-22T10:05:19.986Z,524.00
2023-04-22T10:06:20.035Z,515.00
2023-04-22T10:07:20.106Z,611.00
2023-04-22T10:08:20.118Z,663.00
2023-04-22T10:09:20.171Z,1238.00
2023-04-22T10:10:20.240Z,1309.00
2023-04-22T10:11:20.255Z,1274.00
2023-04-22T10:12:26.200Z,1013.00
2023-04-22T10:13:21.205Z,999.00
2023-04-22T10:14:20.289Z,1037.00
2023-04-22T10:15:20.179Z,710.00
2023-04-22T10:16:20.240Z,635.00
2023-04-22T10:17:20.184Z,400.00
2023-04-22T10:18:20.191Z,400.00
2023-04-22T10:19:20.178Z,440.00
2023-04-22T10:20:20.185Z,536.00
2023-04-22T10:21:20.193Z,537.00
2023-04-22T10:22:20.125Z,562.00
2023-04-22T10:23:20.276Z,602.00
2023-04-22T10:24:20.117Z,590.00
2023-04-22T10:25:20.134Z,615.00
2023-04-22T10:26:20.130Z,2020.00
2023-04-22T10:27:20.148Z,1188.00
2023-04-22T10:28:20.146Z,2376.00
2023-04-22T10:29:20.128Z,1802.00
2023-04-22T10:30:20.148Z,1063.00
2023-04-22T10:31:20.071Z,983.00
2023-04-22T10:32:20.079Z,1145.00
2023-04-22T10:33:20.161Z,1110.00
2023-04-22T10:34:20.187Z,922.00
2023-04-22T10:35:20.293Z,890.00
2023-04-22T10:36:20.332Z,1413.00
2023-04-22T10:37:20.316Z,1758.00
2023-04-22T10:38:20.438Z,1669.00
2023-04-22T10:39:20.432Z,1118.00
2023-04-22T10:40:20.461Z,1003.00
2023-04-22T10:41:20.452Z,1068.00
2023-04-22T10:42:20.455Z,915.00
2023-04-22T10:43:20.522Z,769.00
2023-04-22T10:44:20.549Z,666.00
2023-04-22T10:45:20.584Z,660.00
2023-04-22T10:46:20.592Z,693.00
2023-04-22T10:47:20.676Z,706.00
2023-04-22T10:48:20.608Z,613.00
2023-04-22T10:49:20.625Z,641.00
2023-04-22T10:50:20.615Z,722.00
2023-04-22T10:51:20.654Z,665.00
2023-04-22T10:52:20.738Z,666.00
2023-04-22T10:53:20.731Z,639.00
2023-04-22T10:54:20.742Z,593.00
2023-04-22T10:55:20.776Z,617.00
2023-04-22T10:56:21.463Z,597.00
2023-04-22T10:57:20.752Z,666.00
2023-04-22T10:58:20.809Z,592.00
2023-04-22T10:59:20.806Z,576.00
2023-04-22T11:00:20.890Z,465.00
2023-04-22T11:01:20.986Z,542.00
2023-04-22T11:02:21.027Z,659.00
2023-04-22T11:03:21.233Z,632.00
2023-04-22T11:04:21.157Z,581.00
2023-04-22T11:05:21.590Z,560.00
2023-04-22T11:06:21.137Z,530.00
2023-04-22T11:07:21.253Z,401.00
2023-04-22T11:08:21.239Z,505.00
2023-04-22T11:09:21.232Z,535.00
2023-04-22T11:10:21.252Z,520.00
2023-04-22T11:11:21.315Z,520.00
2023-04-22T11:12:21.347Z,527.00
2023-04-22T11:13:21.553Z,500.00
2023-04-22T11:14:21.446Z,566.00
2023-04-22T11:15:21.372Z,539.00
2023-04-22T11:16:22.326Z,557.00
2023-04-22T11:17:21.439Z,666.00
2023-04-22T11:18:21.383Z,638.00
2023-04-22T11:19:21.434Z,648.00
2023-04-22T11:20:21.432Z,684.00
2023-04-22T11:21:21.406Z,773.00
2023-04-22T11:22:21.423Z,724.00
2023-04-22T11:23:21.369Z,664.00
2023-04-22T11:24:21.416Z,653.00
2023-04-22T11:25:21.394Z,643.00
2023-04-22T11:26:21.398Z,589.00
2023-04-22T11:27:21.418Z,502.00
2023-04-22T11:28:21.625Z,535.00
2023-04-22T11:29:21.333Z,595.00
2023-04-22T11:30:21.289Z,541.00
2023-04-22T11:31:21.370Z,490.00
2023-04-22T11:32:21.372Z,572.00
2023-04-22T11:33:21.341Z,798.00
2023-04-22T11:34:21.370Z,739.00
2023-04-22T11:35:21.390Z,759.00
2023-04-22T11:36:21.390Z,647.00
2023-04-22T11:37:21.495Z,871.00
2023-04-22T11:38:21.410Z,999.00
2023-04-22T11:39:21.443Z,1413.00
2023-04-22T11:41:22.517Z,1250.00
2023-04-22T11:42:21.489Z,808.00
2023-04-22T11:43:21.422Z,655.00
2023-04-22T11:44:21.399Z,673.00
2023-04-22T11:45:21.398Z,778.00
2023-04-22T11:46:22.437Z,717.00
2023-04-22T11:47:21.435Z,718.00
2023-04-22T11:48:21.368Z,708.00
2023-04-22T11:49:21.447Z,740.00
2023-04-22T11:50:21.353Z,852.00
2023-04-22T11:51:21.377Z,795.00
2023-04-22T11:52:21.386Z,841.00
2023-04-22T11:53:21.388Z,845.00
2023-04-22T11:54:21.397Z,649.00
2023-04-22T11:55:21.309Z,568.00
2023-04-22T11:56:21.330Z,547.00
2023-04-22T11:57:21.351Z,538.00
2023-04-22T11:58:21.414Z,626.00
2023-04-22T11:59:21.390Z,744.00
2023-04-22T12:00:21.355Z,870.00
2023-04-22T12:01:21.348Z,918.00
2023-04-22T12:02:21.525Z,634.00
2023-04-22T12:03:21.555Z,574.00
2023-04-22T12:04:21.460Z,632.00
2023-04-22T12:05:21.491Z,488.00
2023-04-22T12:06:21.457Z,505.00
2023-04-22T12:07:21.447Z,709.00
2023-04-22T12:08:21.461Z,869.00
2023-04-22T12:09:21.473Z,1074.00
2023-04-22T12:10:21.466Z,804.00
2023-04-22T12:11:21.489Z,664.00
2023-04-22T12:12:21.487Z,591.00
2023-04-22T12:13:21.486Z,586.00
2023-04-22T12:14:21.539Z,534.00
2023-04-22T12:15:21.530Z,566.00
2023-04-22T12:16:21.552Z,659.00
2023-04-22T12:17:21.555Z,673.00
2023-04-22T12:18:21.602Z,945.00
2023-04-22T12:19:21.599Z,1041.00
2023-04-22T12:20:23.470Z,1127.00
2023-04-22T12:21:21.648Z,692.00
2023-04-22T12:22:21.667Z,605.00